Time;durP1;ratioP1;P1;durP2;ratioP2;P2;SDS_P1;SDS_P2;PMS_P1;PMS_P2;Temp;Humidity;BMP_temperature;BMP_pressure;BME280_temperature;BME280_humidity;BME280_pressure;Samples;Min_cycle;Max_cycle;Signal;HPM_P1;HPM_P2
2022/11/27 00:00:05;;;;;;;;;;;;;;;5.41;77.14;100674.75;335630;29;1621;-74
2022/11/27 00:00:16;;;;;;;;;;;;;;;5.40;77.25;100686.00;335806;29;2413;-74
2022/11/27 00:00:26;;;;;;;;;;;;;;;5.41;77.25;100681.66;333338;29;1936;-76
2022/11/27 00:00:36;;;;;;;;;;;;;;;5.42;76.90;100683.41;335368;29;1098;-75
2022/11/27 00:00:47;;;;;;;;;;;;;;;5.42;76.81;100684.25;335993;29;832;-75
2022/11/27 00:00:57;;;;;;;;;;;;;;;5.42;77.20;100679.06;335183;29;1740;-75
2022/11/27 00:01:08;;;;;;;;;;;;;;;5.41;77.10;100677.34;332171;29;2348;-74
2022/11/27 00:01:19;;;;;;;;;;;;;;;5.39;76.96;100680.81;330203;29;2146;-74
2022/11/27 00:01:31;;;;;;;;;;;;;;;5.40;77.18;100674.75;330944;29;879;-74
2022/11/27 00:01:41;;;;;;;;;;;;;;;5.41;76.88;100676.47;328437;29;2423;-75
2022/11/27 00:01:51;;;;;;;;;;;;;;;5.41;76.99;100685.13;327021;30;2253;-76
2022/11/27 00:02:02;;;;;;;;;;;;;;;5.42;77.29;100681.66;328160;30;1657;-75
2022/11/27 00:02:12;;;;;;;;;;;;;;;5.43;76.88;100680.78;326185;30;2517;-75
2022/11/27 00:02:22;;;;;;;;;;;;;;;5.45;77.07;100685.97;324408;30;1802;-75
2022/11/27 00:02:32;;;;;;;;;;;;;;;5.44;77.08;100672.13;324856;30;1006;-74
2022/11/27 00:02:42;;;;;;;;;;;;;;;5.44;77.01;100682.53;325586;30;1501;-75
2022/11/27 00:02:53;;;;;;;;;;;;;;;5.44;76.75;100679.94;324808;30;2155;-75
2022/11/27 00:03:03;;;;;;;;;;;;;;;5.43;76.90;100680.78;323585;30;945;-75
2022/11/27 00:03:13;;;;;;;;;;;;;;;5.44;76.96;100666.94;323122;30;2684;-75
2022/11/27 00:03:23;;;;;;;;;;;;;;;5.44;76.87;100685.13;321148;30;2984;-73
2022/11/27 00:03:34;;;;;;;;;;;;;;;5.45;76.77;100689.44;319811;30;2920;-75
2022/11/27 00:03:44;;;;;;;;;;;;;;;5.46;76.75;100679.91;320132;30;963;-75
2022/11/27 00:03:54;;;;;;;;;;;;;;;5.46;76.88;100670.41;317170;31;3664;-75
2022/11/27 00:04:05;;;;;;;;;;;;;;;5.46;76.67;100669.53;315380;30;2684;-76
2022/11/27 00:04:15;;;;;;;;;;;;;;;5.46;76.68;100680.78;318890;31;967;-76
2022/11/27 00:04:25;;;;;;;;;;;;;;;5.44;76.54;100674.72;317456;31;3263;-75
2022/11/27 00:04:35;;;;;;;;;;;;;;;5.45;76.81;100678.19;316099;30;5832;-76
2022/11/27 00:04:46;;;;;;;;;;;;;;;5.45;76.98;100679.06;316272;31;3217;-76
2022/11/27 00:04:56;;;;;;;;;;;;;;;5.46;76.92;100675.59;313798;31;2932;-75
2022/11/27 00:05:06;;;;;;;;;;;;;;;5.45;76.94;100676.47;311136;31;3736;-75
2022/11/27 00:05:17;;;;;;;;;;;;;;;5.44;76.77;100672.13;314144;31;2387;-75
2022/11/27 00:05:27;;;;;;;;;;;;;;;5.43;76.98;100672.13;311069;31;3698;-75
2022/11/27 00:05:37;;;;;;;;;;;;;;;5.42;76.75;100679.06;311505;31;3934;-75
2022/11/27 00:05:51;;;;;;;;;;;;;;;5.42;76.88;100684.25;313023;31;853;-75
2022/11/27 00:06:01;;;;;;;;;;;;;;;5.42;77.20;100671.28;309893;31;3298;-75
2022/11/27 00:06:12;;;;;;;;;;;;;;;5.41;76.94;100677.34;305909;31;5757;-75
2022/11/27 00:06:23;;;;;;;;;;;;;;;5.42;76.71;100678.19;308293;31;3718;-75
2022/11/27 00:06:33;;;;;;;;;;;;;;;5.42;76.94;100673.00;309019;31;911;-75
2022/11/27 00:06:43;;;;;;;;;;;;;;;5.43;76.97;100679.94;299859;32;4428;-75
2022/11/27 00:06:54;;;;;;;;;;;;;;;5.41;77.11;100676.47;302751;32;3464;-75
2022/11/27 00:07:04;;;;;;;;;;;;;;;5.42;76.93;100679.06;302617;32;2924;-75
2022/11/27 00:07:14;;;;;;;;;;;;;;;5.43;76.80;100670.41;302543;32;944;-76
2022/11/27 00:07:24;;;;;;;;;;;;;;;5.42;76.86;100673.88;301255;32;4432;-75
2022/11/27 00:07:34;;;;;;;;;;;;;;;5.41;76.66;100682.53;299297;32;5621;-75
2022/11/27 00:07:45;;;;;;;;;;;;;;;5.39;76.63;100679.06;301367;32;1250;-75
2022/11/27 00:07:55;;;;;;;;;;;;;;;5.35;76.61;100682.53;299230;32;5762;-75
2022/11/27 00:08:05;;;;;;;;;;;;;;;5.35;77.06;100677.34;297795;32;7487;-74
2022/11/27 00:08:15;;;;;;;;;;;;;;;5.35;76.93;100682.53;297135;33;1424;-74
2022/11/27 00:08:26;;;;;;;;;;;;;;;5.35;76.89;100682.53;295967;33;7406;-75
2022/11/27 00:08:36;;;;;;;;;;;;;;;5.34;77.04;100679.09;296087;33;4964;-75
2022/11/27 00:08:46;;;;;;;;;;;;;;;5.36;77.28;100681.66;295246;33;1879;-75
2022/11/27 00:09:00;;;;;;;;;;;;;;;5.36;77.03;100679.06;294823;33;6007;-75
2022/11/27 00:09:11;;;;;;;;;;;;;;;5.37;77.20;100679.94;293851;33;5319;-75
2022/11/27 00:09:21;;;;;;;;;;;;;;;5.38;77.15;100677.34;291368;33;5342;-75
2022/11/27 00:09:32;;;;;;;;;;;;;;;5.38;76.96;100672.16;289580;34;1412;-75
2022/11/27 00:09:42;;;;;;;;;;;;;;;5.35;76.94;100672.16;289768;34;6951;-74
2022/11/27 00:09:52;;;;;;;;;;;;;;;5.34;77.15;100681.69;285074;34;8072;-75
2022/11/27 00:10:03;;;;;;;;;;;;;;;5.35;77.00;100682.53;284849;34;812;-74
2022/11/27 00:10:13;;;;;;;;;;;;;;;5.35;77.03;100685.13;284814;34;9064;-74
2022/11/27 00:11:46;;;;;;;;;;;;;;;5.39;76.60;100689.44;2478120;27;19933;-75
2022/11/27 00:11:57;;;;;;;;;;;;;;;5.40;76.89;100680.81;352012;28;885;-74
2022/11/27 00:12:07;;;;;;;;;;;;;;;5.39;76.61;100681.66;350570;28;1930;-74
2022/11/27 00:12:17;;;;;;;;;;;;;;;5.40;76.82;100679.94;350609;28;926;-74
2022/11/27 00:12:28;;;;;;;;;;;;;;;5.41;77.00;100679.06;350721;28;878;-74
2022/11/27 00:12:38;;;;;;;;;;;;;;;5.41;76.58;100677.34;350666;28;970;-74
2022/11/27 00:12:48;;;;;;;;;;;;;;;5.41;76.85;100679.94;349147;28;1565;-74
2022/11/27 00:12:58;;;;;;;;;;;;;;;5.43;76.53;100680.78;349196;28;1214;-74
2022/11/27 00:13:08;;;;;;;;;;;;;;;5.43;76.74;100685.13;350478;28;1245;-74
2022/11/27 00:13:19;;;;;;;;;;;;;;;5.43;76.67;100679.94;347653;28;1370;-74
2022/11/27 00:13:29;;;;;;;;;;;;;;;5.42;76.78;100679.06;347917;28;1347;-74
2022/11/27 00:13:39;;;;;;;;;;;;;;;5.41;76.83;100677.34;346981;28;809;-74
2022/11/27 00:13:49;;;;;;;;;;;;;;;5.42;76.52;100676.47;346282;28;4262;-74
2022/11/27 00:14:00;;;;;;;;;;;;;;;5.42;76.37;100684.25;346718;28;5417;-73
2022/11/27 00:14:10;;;;;;;;;;;;;;;5.43;76.35;100680.78;348658;28;5777;-74
2022/11/27 00:14:21;;;;;;;;;;;;;;;5.42;76.16;100678.19;347213;28;2053;-74
2022/11/27 00:14:31;;;;;;;;;;;;;;;5.44;76.29;100677.34;346978;28;5907;-74
2022/11/27 00:14:41;;;;;;;;;;;;;;;5.43;76.26;100683.38;347835;28;911;-74
2022/11/27 00:14:51;;;;;;;;;;;;;;;5.42;76.44;100679.06;346536;28;1244;-74
2022/11/27 00:15:02;;;;;;;;;;;;;;;5.43;76.07;100680.78;346649;28;872;-72
2022/11/27 00:15:12;;;;;;;;;;;;;;;5.43;76.22;100680.78;345467;28;1358;-72
2022/11/27 00:15:22;;;;;;;;;;;;;;;5.44;76.19;100681.66;347939;28;1204;-73
2022/11/27 00:15:33;;;;;;;;;;;;;;;5.44;76.24;100682.53;348776;28;1377;-75
2022/11/27 00:15:43;;;;;;;;;;;;;;;5.43;76.00;100686.00;346894;28;1715;-74
2022/11/27 00:15:55;;;;;;;;;;;;;;;5.44;75.99;100684.25;345083;28;1874;-74
2022/11/27 00:16:06;;;;;;;;;;;;;;;5.44;75.95;100687.72;343841;28;936;-75
2022/11/27 00:16:16;;;;;;;;;;;;;;;5.44;76.06;100686.84;346539;28;1345;-74
2022/11/27 00:16:26;;;;;;;;;;;;;;;5.45;75.96;100683.38;346530;28;920;-75
2022/11/27 00:16:37;;;;;;;;;;;;;;;5.43;75.84;100685.13;345255;28;1305;-74
2022/11/27 00:16:47;;;;;;;;;;;;;;;5.44;76.06;100684.25;346513;28;900;-74
2022/11/27 00:16:58;;;;;;;;;;;;;;;5.42;76.08;100676.47;345044;28;1215;-75
2022/11/27 00:17:08;;;;;;;;;;;;;;;5.42;75.79;100678.19;345309;28;1788;-73
2022/11/27 00:17:19;;;;;;;;;;;;;;;5.39;76.15;100679.06;345049;28;1551;-74
2022/11/27 00:17:29;;;;;;;;;;;;;;;5.39;76.03;100684.25;343769;28;904;-74
2022/11/27 00:17:39;;;;;;;;;;;;;;;5.38;75.83;100682.53;343376;28;2129;-73
2022/11/27 00:17:49;;;;;;;;;;;;;;;5.37;76.11;100673.03;345064;28;1224;-74
2022/11/27 00:18:00;;;;;;;;;;;;;;;5.36;76.02;100684.28;345125;28;1212;-75
2022/11/27 00:18:10;;;;;;;;;;;;;;;5.36;75.96;100686.88;342909;28;1240;-75
2022/11/27 00:18:20;;;;;;;;;;;;;;;5.35;76.08;100683.41;342450;28;778;-74
2022/11/27 00:18:31;;;;;;;;;;;;;;;5.37;76.05;100686.00;340970;29;1293;-73
2022/11/27 00:18:41;;;;;;;;;;;;;;;5.36;76.41;100694.66;338659;29;1994;-73
2022/11/27 00:18:51;;;;;;;;;;;;;;;5.37;76.07;100686.00;340480;29;1208;-74
2022/11/27 00:19:01;;;;;;;;;;;;;;;5.36;76.34;100684.28;341151;29;971;-75
2022/11/27 00:19:12;;;;;;;;;;;;;;;5.36;76.19;100689.47;341902;28;1223;-75
2022/11/27 00:19:22;;;;;;;;;;;;;;;5.36;76.06;100681.66;342498;28;1646;-75
2022/11/27 00:19:32;;;;;;;;;;;;;;;5.38;76.20;100689.47;345178;28;871;-75
2022/11/27 00:19:42;;;;;;;;;;;;;;;5.37;76.22;100680.81;342240;28;1512;-75
2022/11/27 00:19:53;;;;;;;;;;;;;;;5.38;76.04;100687.72;340110;28;1367;-75
2022/11/27 00:20:03;;;;;;;;;;;;;;;5.38;76.08;100689.47;342415;28;1063;-74
2022/11/27 00:20:14;;;;;;;;;;;;;;;5.37;76.56;100685.13;343286;28;1413;-75
2022/11/27 00:20:24;;;;;;;;;;;;;;;5.36;76.51;100692.06;339980;29;1514;-75
2022/11/27 00:20:34;;;;;;;;;;;;;;;5.36;76.63;100684.28;338505;29;1914;-75
2022/11/27 00:20:44;;;;;;;;;;;;;;;5.36;76.57;100689.47;342877;28;1335;-75
2022/11/27 00:20:55;;;;;;;;;;;;;;;5.36;76.33;100689.47;344390;28;844;-74
2022/11/27 00:21:06;;;;;;;;;;;;;;;5.37;76.25;100686.00;344326;28;1821;-74
2022/11/27 00:21:17;;;;;;;;;;;;;;;5.39;76.39;100683.41;345175;28;960;-74
2022/11/27 00:21:28;;;;;;;;;;;;;;;5.37;76.47;100688.59;343296;28;1446;-74
2022/11/27 00:21:39;;;;;;;;;;;;;;;5.37;75.99;100688.59;339847;28;1421;-74
2022/11/27 00:21:49;;;;;;;;;;;;;;;5.39;76.15;100689.44;339815;29;1435;-74
2022/11/27 00:21:59;;;;;;;;;;;;;;;5.37;76.29;100686.00;343028;28;1801;-74
2022/11/27 00:22:09;;;;;;;;;;;;;;;5.37;76.09;100691.19;339237;29;1953;-74
2022/11/27 00:22:20;;;;;;;;;;;;;;;5.34;76.69;100686.88;336018;29;893;-74
2022/11/27 00:22:30;;;;;;;;;;;;;;;5.35;76.37;100692.94;336903;29;2080;-74
2022/11/27 00:22:40;;;;;;;;;;;;;;;5.36;76.46;100686.88;333638;29;2063;-74
2022/11/27 00:22:50;;;;;;;;;;;;;;;5.36;76.25;100689.47;333326;29;1644;-74
2022/11/27 00:23:01;;;;;;;;;;;;;;;5.37;76.53;100691.19;334177;29;3900;-74
2022/11/27 00:23:11;;;;;;;;;;;;;;;5.38;76.76;100692.91;330018;29;5918;-74
2022/11/27 00:23:21;;;;;;;;;;;;;;;5.39;76.27;100693.78;332915;29;3474;-75
2022/11/27 00:23:31;;;;;;;;;;;;;;;5.39;76.73;100689.44;334600;29;1780;-75
2022/11/27 00:23:42;;;;;;;;;;;;;;;5.39;76.29;100686.84;333877;29;5729;-75
2022/11/27 00:23:52;;;;;;;;;;;;;;;5.40;76.66;100695.50;335131;29;2048;-74
2022/11/27 00:24:03;;;;;;;;;;;;;;;5.39;76.54;100694.66;335945;29;966;-75
2022/11/27 00:24:14;;;;;;;;;;;;;;;5.39;76.68;100693.78;328093;29;3182;-75
2022/11/27 00:24:24;;;;;;;;;;;;;;;5.36;76.73;100689.47;324636;30;2331;-75
2022/11/27 00:24:34;;;;;;;;;;;;;;;5.37;76.75;100696.38;324591;30;868;-74
2022/11/27 00:24:44;;;;;;;;;;;;;;;5.38;76.41;100687.72;326525;30;2750;-75
2022/11/27 00:24:55;;;;;;;;;;;;;;;5.38;76.58;100687.72;328856;29;2718;-75
2022/11/27 00:25:05;;;;;;;;;;;;;;;5.38;76.48;100692.91;328385;30;1338;-75
2022/11/27 00:25:15;;;;;;;;;;;;;;;5.39;76.70;100689.44;325831;30;1385;-75
2022/11/27 00:25:26;;;;;;;;;;;;;;;5.38;76.66;100692.91;326129;30;1450;-74
2022/11/27 00:25:36;;;;;;;;;;;;;;;5.40;76.61;100691.19;323122;30;2050;-73
2022/11/27 00:25:52;;;;;;;;;;;;;;;5.39;76.59;100692.06;324877;30;808;-73
2022/11/27 00:26:02;;;;;;;;;;;;;;;5.39;76.78;100693.78;322003;30;2041;-73
2022/11/27 00:26:13;;;;;;;;;;;;;;;5.40;76.39;100695.50;321597;30;2784;-73
2022/11/27 00:26:23;;;;;;;;;;;;;;;5.38;76.78;100698.09;319276;30;3170;-74
2022/11/27 00:26:33;;;;;;;;;;;;;;;5.39;76.30;100689.44;316605;31;1268;-74
2022/11/27 00:26:45;;;;;;;;;;;;;;;5.40;76.83;100696.38;317883;31;3344;-74
2022/11/27 00:26:55;;;;;;;;;;;;;;;5.39;76.83;100696.38;317900;30;3463;-74
2022/11/27 00:27:06;;;;;;;;;;;;;;;5.39;76.73;100689.44;317322;31;3322;-74
2022/11/27 00:27:16;;;;;;;;;;;;;;;5.39;76.69;100693.78;316605;31;1269;-73
2022/11/27 00:27:26;;;;;;;;;;;;;;;5.38;76.86;100692.06;319372;30;2380;-74
2022/11/27 00:27:36;;;;;;;;;;;;;;;5.39;76.91;100692.06;318206;31;2362;-74
2022/11/27 00:27:46;;;;;;;;;;;;;;;5.39;76.97;100694.66;314285;31;1239;-74
2022/11/27 00:27:57;;;;;;;;;;;;;;;5.40;76.73;100696.38;316665;30;2819;-75
2022/11/27 00:28:07;;;;;;;;;;;;;;;5.40;76.97;100685.13;315734;30;3015;-75
2022/11/27 00:28:17;;;;;;;;;;;;;;;5.41;76.94;100698.09;315243;31;1866;-75
2022/11/27 00:28:28;;;;;;;;;;;;;;;5.41;76.92;100692.03;312745;31;3704;-75
2022/11/27 00:28:38;;;;;;;;;;;;;;;5.41;76.46;100698.09;313812;30;4327;-75
2022/11/27 00:28:48;;;;;;;;;;;;;;;5.42;76.86;100688.59;316423;31;1218;-75
2022/11/27 00:28:59;;;;;;;;;;;;;;;5.43;76.60;100696.38;316154;31;4333;-75
2022/11/27 00:29:09;;;;;;;;;;;;;;;5.45;76.80;100693.78;314705;31;4447;-76
2022/11/27 00:29:19;;;;;;;;;;;;;;;5.45;76.76;100692.03;311560;31;1858;-74
2022/11/27 00:29:30;;;;;;;;;;;;;;;5.46;76.77;100690.31;312302;31;4537;-73
2022/11/27 00:29:40;;;;;;;;;;;;;;;5.44;76.52;100692.91;309910;31;3638;-73
2022/11/27 00:29:51;;;;;;;;;;;;;;;5.45;76.53;100694.63;307890;31;3472;-74
2022/11/27 00:30:01;;;;;;;;;;;;;;;5.45;76.88;100694.63;305539;32;1275;-75
2022/11/27 00:30:11;;;;;;;;;;;;;;;5.45;76.46;100688.56;302972;32;4103;-75
2022/11/27 00:30:22;;;;;;;;;;;;;;;5.46;76.34;100695.50;302416;32;4477;-75
2022/11/27 00:30:32;;;;;;;;;;;;;;;5.46;76.58;100691.16;303501;32;1294;-76
2022/11/27 00:30:42;;;;;;;;;;;;;;;5.46;76.71;100691.16;300916;32;5849;-74
2022/11/27 00:30:52;;;;;;;;;;;;;;;5.47;76.57;100692.03;300163;32;6163;-73
2022/11/27 00:31:04;;;;;;;;;;;;;;;5.47;76.58;100692.91;304665;32;976;-73
2022/11/27 00:31:15;;;;;;;;;;;;;;;5.46;76.76;100690.31;301252;32;5732;-74
2022/11/27 00:31:27;;;;;;;;;;;;;;;5.46;76.35;100690.31;299202;32;6583;-75
2022/11/27 00:31:38;;;;;;;;;;;;;;;5.44;76.62;100698.09;297834;32;5818;-75
2022/11/27 00:31:48;;;;;;;;;;;;;;;5.42;76.70;100689.44;300411;32;989;-74
2022/11/27 00:31:58;;;;;;;;;;;;;;;5.43;76.81;100690.31;295606;33;4576;-76
2022/11/27 00:32:08;;;;;;;;;;;;;;;5.41;76.96;100698.09;295066;32;4922;-74
2022/11/27 00:32:19;;;;;;;;;;;;;;;5.40;76.80;100691.19;293583;33;5171;-73
2022/11/27 00:32:29;;;;;;;;;;;;;;;5.40;76.75;100696.38;290925;33;6082;-74
2022/11/27 00:32:39;;;;;;;;;;;;;;;5.40;77.07;100700.69;289713;33;6522;-76
2022/11/27 00:32:49;;;;;;;;;;;;;;;5.39;76.93;100688.59;290358;34;2082;-75
2022/11/27 00:33:00;;;;;;;;;;;;;;;5.39;76.83;100689.44;289184;33;7782;-75
2022/11/27 00:33:10;;;;;;;;;;;;;;;5.40;77.07;100695.50;290080;33;8057;-73
2022/11/27 00:33:20;;;;;;;;;;;;;;;5.39;76.96;100686.84;290542;34;1087;-75
2022/11/27 00:33:30;;;;;;;;;;;;;;;5.39;77.12;100697.25;285701;34;8246;-75
2022/11/27 00:33:41;;;;;;;;;;;;;;;5.38;76.97;100692.91;281396;34;8187;-74
2022/11/27 00:33:52;;;;;;;;;;;;;;;5.39;77.20;100689.44;278741;35;8388;-74
2022/11/27 00:36:13;;;;;;;;;;;;;;;5.32;76.69;100692.94;2504496;27;19923;-75
2022/11/27 00:36:23;;;;;;;;;;;;;;;5.31;76.96;100696.38;355420;27;1676;-74
2022/11/27 00:36:34;;;;;;;;;;;;;;;5.31;76.56;100691.19;353502;28;914;-74
2022/11/27 00:36:44;;;;;;;;;;;;;;;5.31;76.74;100701.59;352036;28;1308;-74
2022/11/27 00:36:54;;;;;;;;;;;;;;;5.31;76.46;100701.59;350740;28;843;-74
2022/11/27 00:37:06;;;;;;;;;;;;;;;5.32;76.72;100700.72;347793;28;1211;-74
2022/11/27 00:37:16;;;;;;;;;;;;;;;5.32;76.63;100695.53;348878;28;1792;-74
2022/11/27 00:37:26;;;;;;;;;;;;;;;5.33;76.53;100699.84;350533;28;1344;-75
2022/11/27 00:37:36;;;;;;;;;;;;;;;5.33;76.71;100699.84;349804;28;1134;-74
2022/11/27 00:37:46;;;;;;;;;;;;;;;5.34;76.28;100701.56;349759;28;1798;-74
2022/11/27 00:37:57;;;;;;;;;;;;;;;5.34;76.29;100701.56;348898;28;1221;-74
2022/11/27 00:38:07;;;;;;;;;;;;;;;5.33;76.17;100692.94;349106;28;1758;-73
2022/11/27 00:38:19;;;;;;;;;;;;;;;5.34;76.49;100701.56;347962;28;818;-73
2022/11/27 00:38:29;;;;;;;;;;;;;;;5.34;76.24;100701.56;349149;28;1149;-74
2022/11/27 00:38:39;;;;;;;;;;;;;;;5.35;76.36;100698.13;349157;28;956;-74
2022/11/27 00:38:50;;;;;;;;;;;;;;;5.35;76.27;100708.50;350630;28;1223;-74
2022/11/27 00:39:00;;;;;;;;;;;;;;;5.36;76.37;100699.84;350704;28;1863;-74
2022/11/27 00:39:10;;;;;;;;;;;;;;;5.36;76.24;100699.84;349240;28;1208;-73
2022/11/27 00:39:20;;;;;;;;;;;;;;;5.38;75.85;100707.63;347712;28;1854;-75
2022/11/27 00:39:31;;;;;;;;;;;;;;;5.36;75.75;100705.03;350472;28;975;-75
2022/11/27 00:39:41;;;;;;;;;;;;;;;5.37;75.96;100704.16;350258;28;962;-75
2022/11/27 00:39:51;;;;;;;;;;;;;;;5.38;75.92;100702.44;350663;28;2044;-76
2022/11/27 00:40:01;;;;;;;;;;;;;;;5.38;76.00;100710.22;347733;28;1261;-75
2022/11/27 00:40:12;;;;;;;;;;;;;;;5.39;75.88;100704.16;349204;28;875;-74
2022/11/27 00:40:22;;;;;;;;;;;;;;;5.40;75.47;100698.97;349064;28;887;-75
2022/11/27 00:40:32;;;;;;;;;;;;;;;5.39;75.53;100699.84;345663;28;1523;-74
2022/11/27 00:40:42;;;;;;;;;;;;;;;5.40;75.63;100706.75;349315;28;906;-75
2022/11/27 00:40:53;;;;;;;;;;;;;;;5.40;75.81;100704.16;349151;28;1214;-74
2022/11/27 00:41:29;;;;;;;;;;;;;;;5.40;75.75;100696.38;349284;28;919;-74
2022/11/27 00:41:39;;;;;;;;;;;;;;;5.41;75.84;100702.44;345225;28;3581;-74
2022/11/27 00:41:49;;;;;;;;;;;;;;;5.41;75.91;100703.28;349529;28;945;-74
2022/11/27 00:41:59;;;;;;;;;;;;;;;5.41;75.95;100703.28;349293;28;1979;-74
2022/11/27 00:42:10;;;;;;;;;;;;;;;5.41;75.66;100703.28;347674;28;1461;-74
2022/11/27 00:42:20;;;;;;;;;;;;;;;5.41;75.57;100708.50;346766;28;1338;-74
2022/11/27 00:42:30;;;;;;;;;;;;;;;5.41;75.87;100703.28;346510;28;1442;-74
2022/11/27 00:42:40;;;;;;;;;;;;;;;5.41;75.88;100702.44;347401;28;1292;-74
2022/11/27 00:42:51;;;;;;;;;;;;;;;5.40;75.68;100705.91;346432;28;1156;-74
2022/11/27 00:43:01;;;;;;;;;;;;;;;5.37;76.07;100701.56;345086;28;884;-74
2022/11/27 00:43:11;;;;;;;;;;;;;;;5.38;75.96;100703.31;346913;28;1456;-73
2022/11/27 00:43:21;;;;;;;;;;;;;;;5.37;76.15;100698.13;347957;28;895;-73
2022/11/27 00:43:32;;;;;;;;;;;;;;;5.39;75.90;100704.16;344973;28;1580;-73
2022/11/27 00:43:43;;;;;;;;;;;;;;;5.38;75.83;100700.72;343829;28;833;-73
2022/11/27 00:43:53;;;;;;;;;;;;;;;5.38;75.99;100708.50;345035;28;1297;-74
2022/11/27 00:44:04;;;;;;;;;;;;;;;5.39;75.95;100705.03;344355;28;1364;-73
2022/11/27 00:44:14;;;;;;;;;;;;;;;5.38;75.92;100703.31;346372;28;1278;-73
2022/11/27 00:44:24;;;;;;;;;;;;;;;5.39;76.10;100702.44;344322;28;1505;-73
2022/11/27 00:44:34;;;;;;;;;;;;;;;5.39;76.05;100699.84;347143;28;1204;-73
2022/11/27 00:44:45;;;;;;;;;;;;;;;5.40;75.35;100706.75;349334;28;936;-74
2022/11/27 00:44:55;;;;;;;;;;;;;;;5.40;75.79;100696.38;346893;28;1488;-75
2022/11/27 00:45:05;;;;;;;;;;;;;;;5.41;75.77;100703.28;345257;28;1987;-74
2022/11/27 00:45:16;;;;;;;;;;;;;;;5.40;75.60;100701.56;342299;28;1237;-74
2022/11/27 00:45:26;;;;;;;;;;;;;;;5.39;75.48;100702.44;341811;28;920;-74
2022/11/27 00:45:37;;;;;;;;;;;;;;;5.38;75.55;100698.09;343644;28;1315;-74
2022/11/27 00:45:47;;;;;;;;;;;;;;;5.38;75.58;100699.84;342245;28;1204;-74
2022/11/27 00:45:58;;;;;;;;;;;;;;;5.39;75.64;100705.03;338157;29;2006;-74
2022/11/27 00:46:08;;;;;;;;;;;;;;;5.39;75.70;100698.97;336965;29;1330;-74
2022/11/27 00:46:19;;;;;;;;;;;;;;;5.39;75.73;100705.03;337213;29;1820;-74
2022/11/27 00:46:30;;;;;;;;;;;;;;;5.40;75.83;100700.69;338402;29;1567;-75
2022/11/27 00:46:40;;;;;;;;;;;;;;;5.37;75.72;100698.97;340356;29;2148;-74
2022/11/27 00:46:50;;;;;;;;;;;;;;;5.36;75.84;100705.03;339013;28;1934;-75
2022/11/27 00:47:01;;;;;;;;;;;;;;;5.36;75.70;100702.44;336063;29;887;-75
2022/11/27 00:47:11;;;;;;;;;;;;;;;5.36;75.71;100699.84;338123;29;2090;-75
2022/11/27 00:47:21;;;;;;;;;;;;;;;5.34;75.79;100704.16;340841;28;1644;-74
2022/11/27 00:47:31;;;;;;;;;;;;;;;5.33;75.80;100702.44;341179;29;824;-74
2022/11/27 00:47:41;;;;;;;;;;;;;;;5.32;75.89;100706.78;339581;28;5101;-74
2022/11/27 00:47:52;;;;;;;;;;;;;;;5.33;75.88;100705.03;335549;29;3440;-74
2022/11/27 00:48:02;;;;;;;;;;;;;;;5.33;76.05;100699.84;334104;29;1734;-74
2022/11/27 00:48:12;;;;;;;;;;;;;;;5.34;76.00;100706.78;335973;29;2018;-75
2022/11/27 00:48:22;;;;;;;;;;;;;;;5.35;75.87;100703.31;337179;29;3746;-75
2022/11/27 00:48:33;;;;;;;;;;;;;;;5.35;75.72;100703.31;337778;29;2111;-75
2022/11/27 00:48:43;;;;;;;;;;;;;;;5.37;76.29;100708.50;337274;29;852;-75
2022/11/27 00:48:53;;;;;;;;;;;;;;;5.37;76.25;100701.56;335685;29;2140;-75
2022/11/27 00:49:04;;;;;;;;;;;;;;;5.36;76.05;100705.03;334402;29;2282;-75
2022/11/27 00:49:14;;;;;;;;;;;;;;;5.35;76.15;100703.31;334638;29;957;-75
2022/11/27 00:49:25;;;;;;;;;;;;;;;5.36;76.15;100705.03;332743;29;2440;-75
2022/11/27 00:49:35;;;;;;;;;;;;;;;5.34;75.99;100706.78;330541;29;1805;-76
2022/11/27 00:49:45;;;;;;;;;;;;;;;5.33;76.08;100700.72;331109;29;2288;-75
2022/11/27 00:49:56;;;;;;;;;;;;;;;5.31;75.75;100702.44;331061;29;1977;-75
2022/11/27 00:50:06;;;;;;;;;;;;;;;5.31;76.08;100706.78;331041;29;2039;-75
2022/11/27 00:50:16;;;;;;;;;;;;;;;5.30;75.92;100708.50;328354;30;1371;-75
2022/11/27 00:50:30;;;;;;;;;;;;;;;5.32;75.83;100704.16;325457;29;2670;-75
2022/11/27 00:50:40;;;;;;;;;;;;;;;5.32;76.10;100705.91;326124;30;2785;-75
2022/11/27 00:50:50;;;;;;;;;;;;;;;5.32;75.75;100708.50;324557;30;2898;-75
2022/11/27 00:51:02;;;;;;;;;;;;;;;5.31;75.92;100702.44;321186;30;1604;-75
2022/11/27 00:51:13;;;;;;;;;;;;;;;5.32;75.72;100709.38;314218;31;1249;-75
2022/11/27 00:51:23;;;;;;;;;;;;;;;5.31;76.03;100701.59;314872;31;2920;-73
2022/11/27 00:51:33;;;;;;;;;;;;;;;5.32;75.55;100709.38;313671;31;3139;-74
2022/11/27 00:51:44;;;;;;;;;;;;;;;5.33;75.83;100707.63;315447;31;1690;-74
2022/11/27 00:51:54;;;;;;;;;;;;;;;5.32;75.72;100704.16;313849;31;2601;-74
2022/11/27 00:52:04;;;;;;;;;;;;;;;5.32;75.80;100705.91;313110;31;2243;-74
2022/11/27 00:52:14;;;;;;;;;;;;;;;5.32;76.08;100703.31;314345;31;1185;-74
2022/11/27 00:52:25;;;;;;;;;;;;;;;5.33;76.07;100710.22;311512;31;2748;-75
2022/11/27 00:52:35;;;;;;;;;;;;;;;5.34;75.72;100709.38;311892;31;3543;-75
2022/11/27 00:52:45;;;;;;;;;;;;;;;5.32;75.80;100711.09;311290;31;1501;-75
2022/11/27 00:52:55;;;;;;;;;;;;;;;5.30;75.83;100710.22;303194;32;4583;-75
2022/11/27 00:53:05;;;;;;;;;;;;;;;5.30;76.09;100710.22;302572;32;4514;-74
2022/11/27 00:53:16;;;;;;;;;;;;;;;5.31;75.94;100711.97;307701;32;895;-74
2022/11/27 00:53:26;;;;;;;;;;;;;;;5.30;75.94;100710.22;310861;31;4348;-75
2022/11/27 00:53:37;;;;;;;;;;;;;;;5.30;75.92;100712.81;311335;31;3781;-75
2022/11/27 00:53:47;;;;;;;;;;;;;;;5.28;75.79;100714.56;311345;31;4704;-75
2022/11/27 00:53:57;;;;;;;;;;;;;;;5.29;75.98;100713.69;309959;31;864;-75
2022/11/27 00:54:07;;;;;;;;;;;;;;;5.30;76.17;100705.91;309147;31;3466;-75
2022/11/27 00:54:18;;;;;;;;;;;;;;;5.31;76.23;100712.81;307684;32;3385;-75
2022/11/27 00:54:28;;;;;;;;;;;;;;;5.32;76.36;100711.97;305323;32;2010;-75
2022/11/27 00:54:38;;;;;;;;;;;;;;;5.31;75.93;100711.97;301510;32;3910;-75
2022/11/27 00:54:49;;;;;;;;;;;;;;;5.31;75.73;100711.97;299909;32;5223;-75
2022/11/27 00:54:59;;;;;;;;;;;;;;;5.29;76.03;100716.28;302456;32;1116;-75
2022/11/27 00:55:10;;;;;;;;;;;;;;;5.29;76.04;100713.69;298006;32;6860;-75
2022/11/27 00:55:20;;;;;;;;;;;;;;;5.29;76.17;100713.69;298722;32;7229;-75
2022/11/27 00:55:30;;;;;;;;;;;;;;;5.29;76.12;100718.88;299541;32;948;-75
2022/11/27 00:55:40;;;;;;;;;;;;;;;5.29;76.06;100714.56;299002;32;6689;-75
2022/11/27 00:55:50;;;;;;;;;;;;;;;5.29;76.04;100718.88;296731;33;5211;-74
2022/11/27 00:56:01;;;;;;;;;;;;;;;5.30;76.08;100720.63;296351;33;1701;-75
2022/11/27 00:56:15;;;;;;;;;;;;;;;5.29;76.06;100718.88;298204;33;5494;-74
2022/11/27 00:56:25;;;;;;;;;;;;;;;5.29;76.06;100721.47;297052;33;5341;-74
2022/11/27 00:56:37;;;;;;;;;;;;;;;5.30;76.42;100715.44;294553;33;5057;-74
2022/11/27 00:56:47;;;;;;;;;;;;;;;5.29;76.14;100719.75;291843;33;6003;-74
2022/11/27 00:56:57;;;;;;;;;;;;;;;5.28;76.15;100714.56;288329;34;4610;-74
2022/11/27 00:57:07;;;;;;;;;;;;;;;5.29;76.26;100724.06;287772;34;7384;-75
2022/11/27 00:57:18;;;;;;;;;;;;;;;5.30;75.98;100715.44;286438;34;9552;-75
2022/11/27 00:57:28;;;;;;;;;;;;;;;5.31;76.00;100717.16;285229;34;5931;-75
2022/11/27 00:57:38;;;;;;;;;;;;;;;5.32;76.42;100721.47;285659;34;9946;-75
2022/11/27 00:59:41;;;;;;;;;;;;;;;5.32;75.69;100714.56;2494472;27;19933;-74
2022/11/27 00:59:51;;;;;;;;;;;;;;;5.33;75.95;100715.41;354429;27;1229;-74
2022/11/27 01:00:02;;;;;;;;;;;;;;;5.32;75.98;100711.97;351485;28;1645;-73
2022/11/27 01:00:13;;;;;;;;;;;;;;;5.33;75.87;100718.00;351978;28;1446;-75
2022/11/27 01:00:23;;;;;;;;;;;;;;;5.33;76.00;100721.47;350573;28;1306;-73
2022/11/27 01:00:33;;;;;;;;;;;;;;;5.32;76.12;100714.56;350540;28;1218;-74
2022/11/27 01:00:44;;;;;;;;;;;;;;;5.33;75.94;100716.28;350442;28;1184;-74
2022/11/27 01:00:54;;;;;;;;;;;;;;;5.34;76.09;100711.97;351989;28;1222;-74
2022/11/27 01:01:05;;;;;;;;;;;;;;;5.34;75.73;100711.97;353514;28;809;-75
2022/11/27 01:01:19;;;;;;;;;;;;;;;5.35;75.96;100711.09;350507;28;1450;-75
2022/11/27 01:01:33;;;;;;;;;;;;;;;5.34;76.10;100709.38;348182;28;1366;-75
2022/11/27 01:01:43;;;;;;;;;;;;;;;5.34;75.61;100711.97;349147;28;1205;-75
2022/11/27 01:01:53;;;;;;;;;;;;;;;5.34;76.14;100711.97;350979;28;1931;-74